createdAt,value
2023-04-14T00:01:23.006Z,2.02
2023-04-14T00:03:49.774Z,1.82
2023-04-14T00:06:16.481Z,1.71
2023-04-14T00:08:44.121Z,1.93
2023-04-14T00:11:10.716Z,1.74
2023-04-14T00:13:37.643Z,1.70
2023-04-14T00:16:05.628Z,1.91
2023-04-14T00:18:32.331Z,1.69
2023-04-14T00:20:59.006Z,1.98
2023-04-14T00:23:25.636Z,1.81
2023-04-14T00:25:52.269Z,1.88
2023-04-14T00:28:18.900Z,1.60
2023-04-14T00:30:45.738Z,1.79
2023-04-14T00:33:12.451Z,1.41
2023-04-14T00:35:39.219Z,1.68
2023-04-14T00:38:06.007Z,1.75
2023-04-14T00:40:32.702Z,1.60
2023-04-14T00:42:59.384Z,1.65
2023-04-14T00:45:26.084Z,1.98
2023-04-14T00:47:53.974Z,1.65
2023-04-14T00:50:21.429Z,1.51
2023-04-14T00:52:50.376Z,1.75
2023-04-14T00:55:19.538Z,1.79
2023-04-14T00:57:46.939Z,1.91
2023-04-14T01:00:13.980Z,1.91
2023-04-14T01:02:44.087Z,1.81
2023-04-14T01:05:11.082Z,1.91
2023-04-14T01:07:38.592Z,2.05
2023-04-14T01:10:06.968Z,1.93
2023-04-14T01:13:01.038Z,1.91
2023-04-14T01:15:36.241Z,2.04
2023-04-14T01:18:26.877Z,2.09
2023-04-14T01:21:01.548Z,2.17
2023-04-14T01:23:36.891Z,1.94
2023-04-14T01:26:20.461Z,2.36
2023-04-14T01:29:11.936Z,2.79
2023-04-14T01:31:49.121Z,2.48
2023-04-14T01:34:22.805Z,2.58
2023-04-14T01:37:03.943Z,2.53
2023-04-14T01:39:37.911Z,2.59
2023-04-14T01:42:09.505Z,2.78
2023-04-14T01:44:40.665Z,1.90
2023-04-14T01:47:12.662Z,1.87
2023-04-14T01:49:41.590Z,2.02
2023-04-14T01:52:11.406Z,1.59
2023-04-14T01:54:41.161Z,1.67
2023-04-14T01:57:11.295Z,2.26
2023-04-14T01:59:41.387Z,2.29
2023-04-14T02:02:10.161Z,2.37
2023-04-14T02:04:38.797Z,1.98
2023-04-14T02:07:07.699Z,1.89
2023-04-14T02:09:37.863Z,1.93
2023-04-14T02:12:08.005Z,2.15
2023-04-14T02:14:36.701Z,2.05
2023-04-14T02:17:05.884Z,2.31
2023-04-14T02:19:34.199Z,2.12
2023-04-14T02:22:02.990Z,2.03
2023-04-14T02:24:29.693Z,1.84
2023-04-14T02:27:13.716Z,1.93
2023-04-14T02:29:45.190Z,1.96
2023-04-14T02:32:30.485Z,2.16
2023-04-14T02:35:06.289Z,1.87
2023-04-14T02:37:47.076Z,2.11
2023-04-14T02:40:29.524Z,2.16
2023-04-14T02:43:13.792Z,2.08
2023-04-14T02:45:42.740Z,2.00
2023-04-14T02:48:14.519Z,2.02
2023-04-14T02:50:49.010Z,1.92
2023-04-14T02:53:20.327Z,1.98
2023-04-14T02:55:49.474Z,2.02
2023-04-14T02:58:17.464Z,1.90
2023-04-14T03:00:45.257Z,1.98
2023-04-14T03:03:13.603Z,1.84
2023-04-14T03:05:41.924Z,1.96
2023-04-14T03:08:11.619Z,1.87
2023-04-14T03:10:38.794Z,2.14
2023-04-14T03:13:07.783Z,2.10
2023-04-14T03:15:37.741Z,2.21
2023-04-14T03:18:05.538Z,2.30
2023-04-14T03:20:33.805Z,2.11
2023-04-14T03:23:01.722Z,2.22
2023-04-14T03:25:32.617Z,2.51
2023-04-14T03:28:02.450Z,2.44
2023-04-14T03:30:37.020Z,2.38
2023-04-14T03:33:08.445Z,2.51
2023-04-14T03:35:37.065Z,2.66
2023-04-14T03:38:05.883Z,2.82
2023-04-14T03:40:34.967Z,2.54
2023-04-14T03:43:03.679Z,2.62
2023-04-14T03:45:30.418Z,2.59
2023-04-14T03:48:04.116Z,2.71
2023-04-14T03:50:34.628Z,2.39
2023-04-14T03:53:01.301Z,2.50
2023-04-14T03:55:33.038Z,2.59
2023-04-14T03:58:03.443Z,2.78
2023-04-14T04:00:31.065Z,2.66
2023-04-14T04:03:00.351Z,2.67
2023-04-14T04:05:28.034Z,2.52
2023-04-14T04:07:56.211Z,2.40
2023-04-14T04:10:23.775Z,2.36
2023-04-14T04:12:53.473Z,2.64
2023-04-14T04:15:20.327Z,2.65
2023-04-14T04:17:50.909Z,2.82
2023-04-14T04:20:19.545Z,2.94
2023-04-14T04:22:51.936Z,2.51
2023-04-14T04:25:19.825Z,2.80
2023-04-14T04:27:46.581Z,2.84
2023-04-14T04:30:14.693Z,3.10
2023-04-14T04:32:41.421Z,3.14
2023-04-14T04:35:10.086Z,3.13
2023-04-14T04:37:38.250Z,2.88
2023-04-14T04:40:05.366Z,3.67
2023-04-14T04:42:31.973Z,4.31
2023-04-14T04:44:58.656Z,3.86
2023-04-14T04:47:25.293Z,3.46
2023-04-14T04:49:51.993Z,2.90
2023-04-14T04:52:18.615Z,2.46
2023-04-14T04:54:45.217Z,2.72
2023-04-14T04:57:12.317Z,2.57
2023-04-14T04:59:38.983Z,2.25
2023-04-14T05:02:06.293Z,2.26
2023-04-14T05:04:32.978Z,2.11
2023-04-14T05:06:59.576Z,2.03
2023-04-14T05:09:26.283Z,2.04
2023-04-14T05:11:52.942Z,1.97
2023-04-14T05:14:19.549Z,1.90
2023-04-14T05:16:46.223Z,1.92
2023-04-14T05:19:15.067Z,1.90
2023-04-14T05:21:41.686Z,1.86
2023-04-14T05:24:09.310Z,2.45
2023-04-14T05:26:57.819Z,2.50
2023-04-14T05:29:22.537Z,2.09
2023-04-14T05:31:49.193Z,2.13
2023-04-14T05:34:15.864Z,2.09
2023-04-14T05:36:42.502Z,2.29
2023-04-14T05:39:09.104Z,2.12
2023-04-14T05:41:38.820Z,2.23
2023-04-14T05:44:05.406Z,2.00
2023-04-14T05:46:32.154Z,2.40
2023-04-14T05:48:58.930Z,2.76
2023-04-14T05:51:25.659Z,2.40
2023-04-14T05:53:52.241Z,2.58
2023-04-14T05:56:18.929Z,2.25
2023-04-14T05:58:45.543Z,2.39
2023-04-14T06:01:12.316Z,2.50
2023-04-14T06:03:40.590Z,3.44
2023-04-14T06:06:07.592Z,3.11
2023-04-14T06:08:34.273Z,3.19
2023-04-14T06:11:00.888Z,2.76
2023-04-14T06:13:29.587Z,2.39
2023-04-14T06:15:57.890Z,2.33
2023-04-14T06:18:24.549Z,2.16
2023-04-14T06:20:51.156Z,2.28
2023-04-14T06:23:17.768Z,2.21
2023-04-14T06:25:44.424Z,2.16
2023-04-14T06:28:11.034Z,2.27
2023-04-14T06:30:37.632Z,2.56
2023-04-14T06:33:04.659Z,2.71
2023-04-14T06:35:33.534Z,2.87
2023-04-14T06:38:02.079Z,3.04
2023-04-14T06:40:28.933Z,3.02
2023-04-14T06:42:55.589Z,2.97
2023-04-14T06:45:22.234Z,2.84
2023-04-14T06:47:48.920Z,2.86
2023-04-14T06:50:15.727Z,2.89
2023-04-14T06:52:42.362Z,3.30
2023-04-14T06:55:09.435Z,2.98
2023-04-14T06:57:36.098Z,3.06
2023-04-14T07:00:04.636Z,2.94
2023-04-14T07:02:31.340Z,2.76
2023-04-14T07:04:58.057Z,2.84
2023-04-14T07:07:24.759Z,3.03
2023-04-14T07:09:51.610Z,2.56
2023-04-14T07:12:18.402Z,2.45
2023-04-14T07:14:45.013Z,2.72
2023-04-14T07:17:11.639Z,2.60
2023-04-14T07:19:38.264Z,2.72
2023-04-14T07:22:04.876Z,2.81
2023-04-14T07:24:31.519Z,3.20
2023-04-14T07:26:58.233Z,3.11
2023-04-14T07:29:24.838Z,3.19
2023-04-14T07:31:51.524Z,3.17
2023-04-14T07:34:19.206Z,2.97
2023-04-14T07:36:45.878Z,2.65
2023-04-14T07:39:12.503Z,2.42
2023-04-14T07:41:39.142Z,2.74
2023-04-14T07:44:05.884Z,3.17
2023-04-14T07:46:32.533Z,3.17
2023-04-14T07:48:59.157Z,2.59
2023-04-14T07:51:25.794Z,2.62
2023-04-14T07:53:52.486Z,2.91
2023-04-14T07:56:19.396Z,2.67
2023-04-14T07:58:46.115Z,2.40
2023-04-14T08:01:12.703Z,2.06
2023-04-14T08:03:41.977Z,2.17
2023-04-14T08:06:10.389Z,2.60
2023-04-14T08:08:37.010Z,2.91
2023-04-14T08:11:03.704Z,2.48
2023-04-14T08:13:30.372Z,1.97
2023-04-14T08:15:57.121Z,2.27
2023-04-14T08:18:23.890Z,2.22
2023-04-14T08:20:50.722Z,2.38
2023-04-14T08:23:17.364Z,2.00
2023-04-14T08:25:44.039Z,2.08
2023-04-14T08:28:10.745Z,2.05
2023-04-14T08:30:37.407Z,2.00
2023-04-14T08:33:04.647Z,2.31
2023-04-14T08:35:37.344Z,2.00
2023-04-14T08:38:08.393Z,1.81
2023-04-14T08:40:41.012Z,1.62
2023-04-14T08:43:08.079Z,1.70
2023-04-14T08:45:36.294Z,1.78
2023-04-14T08:48:04.933Z,2.19
2023-04-14T08:50:49.251Z,2.16
2023-04-14T08:53:19.428Z,2.37
2023-04-14T08:55:47.134Z,2.24
2023-04-14T08:58:14.195Z,2.09
2023-04-14T09:00:41.749Z,2.24
2023-04-14T09:03:09.150Z,2.13
2023-04-14T09:05:36.583Z,2.51
2023-04-14T09:08:04.840Z,2.22
2023-04-14T09:10:31.950Z,2.06
2023-04-14T09:12:59.580Z,2.03
2023-04-14T09:15:26.503Z,2.33
2023-04-14T09:17:55.092Z,2.59
2023-04-14T09:20:38.580Z,2.30
2023-04-14T09:23:09.067Z,2.07
2023-04-14T09:25:36.680Z,1.65
2023-04-14T09:28:03.730Z,1.98
2023-04-14T09:30:31.953Z,1.82
2023-04-14T09:32:58.727Z,1.97
2023-04-14T09:35:44.574Z,2.00
2023-04-14T09:38:11.353Z,1.88
2023-04-14T09:40:38.084Z,2.00
2023-04-14T09:43:04.874Z,1.92
2023-04-14T09:45:44.657Z,1.89
2023-04-14T09:48:13.215Z,1.96
2023-04-14T09:51:05.766Z,1.75
2023-04-14T09:53:35.031Z,1.73
2023-04-14T09:56:05.974Z,1.93
2023-04-14T09:58:37.898Z,1.71
2023-04-14T10:01:16.291Z,1.81
2023-04-14T10:03:50.134Z,1.62
2023-04-14T10:06:22.215Z,1.77
2023-04-14T10:08:54.131Z,1.65
2023-04-14T10:11:25.057Z,1.45
2023-04-14T10:14:00.121Z,1.66
2023-04-14T10:16:27.334Z,2.00
2023-04-14T10:18:55.104Z,2.21
2023-04-14T10:21:21.760Z,1.92
2023-04-14T10:23:49.160Z,1.76
2023-04-14T10:26:15.822Z,1.56
2023-04-14T10:28:45.815Z,1.49
2023-04-14T10:31:23.794Z,1.65
2023-04-14T10:33:50.724Z,1.68
2023-04-14T10:36:26.294Z,1.30
2023-04-14T10:39:01.585Z,1.47
2023-04-14T10:41:42.694Z,1.54
2023-04-14T10:44:24.409Z,1.77
2023-04-14T10:46:51.111Z,1.73
2023-04-14T10:49:18.478Z,1.63
2023-04-14T10:51:49.216Z,1.38
2023-04-14T10:54:18.201Z,1.30
2023-04-14T10:57:10.867Z,1.33
2023-04-14T10:59:40.688Z,1.42
2023-04-14T11:02:29.263Z,1.48
2023-04-14T11:05:10.661Z,1.63
2023-04-14T11:07:37.256Z,1.88
2023-04-14T11:10:25.885Z,1.74
2023-04-14T11:13:17.547Z,1.52
2023-04-14T11:15:57.563Z,1.42
2023-04-14T11:18:30.214Z,1.58
2023-04-14T11:21:10.696Z,1.33
2023-04-14T11:23:37.818Z,1.42
2023-04-14T11:26:09.656Z,1.50
2023-04-14T11:28:38.374Z,1.29
2023-04-14T11:31:07.534Z,1.25
2023-04-14T11:33:39.769Z,1.40
2023-04-14T11:36:08.719Z,1.48
2023-04-14T11:38:37.020Z,1.54
2023-04-14T11:41:03.933Z,1.59
2023-04-14T11:43:30.676Z,1.60
2023-04-14T11:45:59.366Z,1.31
2023-04-14T11:48:28.851Z,1.27
2023-04-14T11:50:55.485Z,1.38
2023-04-14T11:53:22.212Z,1.25
2023-04-14T11:55:51.211Z,1.39
2023-04-14T11:58:26.033Z,1.39
2023-04-14T12:00:55.908Z,1.47
2023-04-14T12:03:30.017Z,1.43
2023-04-14T12:06:01.902Z,1.47
2023-04-14T12:08:33.215Z,1.35
2023-04-14T12:11:15.505Z,1.12
2023-04-14T12:13:44.313Z,1.28
2023-04-14T12:16:16.485Z,1.31
2023-04-14T12:18:43.921Z,1.36
2023-04-14T12:21:15.741Z,1.22
2023-04-14T12:23:46.341Z,1.08
2023-04-14T12:26:13.140Z,1.30
2023-04-14T12:28:40.341Z,1.27
2023-04-14T12:31:08.204Z,1.37
2023-04-14T12:33:34.957Z,1.27
2023-04-14T12:36:12.417Z,1.21
2023-04-14T12:38:39.412Z,1.24
2023-04-14T12:41:06.075Z,1.42
2023-04-14T12:43:36.153Z,1.33
2023-04-14T12:46:04.165Z,1.15
2023-04-14T12:48:45.417Z,1.38
2023-04-14T12:51:14.476Z,1.45
2023-04-14T12:53:42.287Z,1.38
2023-04-14T12:56:15.471Z,1.12
2023-04-14T12:58:43.836Z,1.39
2023-04-14T13:01:11.614Z,1.28
2023-04-14T13:03:43.014Z,1.32
2023-04-14T13:06:11.224Z,1.20
2023-04-14T13:08:38.093Z,1.28
2023-04-14T13:11:04.714Z,1.17
2023-04-14T13:13:31.309Z,1.13
2023-04-14T13:16:12.467Z,1.36
2023-04-14T13:18:43.032Z,1.35
2023-04-14T13:21:10.047Z,1.20
2023-04-14T13:23:36.762Z,1.13
2023-04-14T13:26:03.913Z,1.23
2023-04-14T13:28:30.565Z,1.17
2023-04-14T13:30:58.373Z,1.19
2023-04-14T13:33:26.090Z,1.47
2023-04-14T13:35:53.183Z,1.36
2023-04-14T13:38:19.948Z,1.53
2023-04-14T13:40:48.198Z,1.57
2023-04-14T13:43:17.133Z,1.26
2023-04-14T13:45:43.897Z,1.47
2023-04-14T13:48:10.560Z,1.54
2023-04-14T13:50:37.185Z,1.46
2023-04-14T13:53:03.891Z,1.46
2023-04-14T13:55:30.518Z,1.33
2023-04-14T13:57:57.139Z,1.38
2023-04-14T14:00:23.794Z,1.82
2023-04-14T14:02:50.543Z,1.80
2023-04-14T14:05:17.524Z,1.57
2023-04-14T14:07:44.227Z,1.69
2023-04-14T14:10:11.889Z,1.81
2023-04-14T14:12:38.606Z,1.94
2023-04-14T14:15:06.072Z,1.94
2023-04-14T14:17:32.767Z,2.00
2023-04-14T14:19:59.827Z,2.04
2023-04-14T14:22:26.699Z,2.15
2023-04-14T14:24:58.499Z,2.11
2023-04-14T14:27:31.332Z,2.04
2023-04-14T14:29:57.942Z,2.00
2023-04-14T14:32:24.648Z,2.02
2023-04-14T14:34:51.275Z,2.25
2023-04-14T14:37:17.897Z,2.35
2023-04-14T14:39:44.578Z,2.42
2023-04-14T14:42:11.234Z,2.23
2023-04-14T14:44:38.350Z,2.11
2023-04-14T14:47:05.862Z,2.01
2023-04-14T14:49:32.871Z,1.90
2023-04-14T14:51:59.620Z,1.73
2023-04-14T14:54:26.535Z,1.71
2023-04-14T14:56:53.119Z,1.86
2023-04-14T14:59:19.800Z,1.76
2023-04-14T15:01:46.571Z,1.79
2023-04-14T15:04:13.371Z,1.40
2023-04-14T15:06:40.162Z,1.37
2023-04-14T15:09:06.772Z,1.34
2023-04-14T15:11:33.438Z,1.47
2023-04-14T15:14:00.382Z,1.33
2023-04-14T15:16:27.562Z,1.52
2023-04-14T15:18:54.201Z,1.74
2023-04-14T15:21:20.947Z,1.48
2023-04-14T15:23:47.537Z,1.48
2023-04-14T15:26:14.388Z,1.53
2023-04-14T15:28:41.041Z,1.34
2023-04-14T15:31:08.292Z,1.26
2023-04-14T15:33:35.177Z,1.37
2023-04-14T15:36:02.123Z,1.27
2023-04-14T15:38:29.089Z,1.35
2023-04-14T15:40:55.862Z,1.30
2023-04-14T15:43:22.466Z,1.34
2023-04-14T15:45:49.134Z,1.49
2023-04-14T15:48:15.912Z,1.47
2023-04-14T15:50:44.286Z,1.31
2023-04-14T15:53:11.814Z,1.32
2023-04-14T15:55:38.480Z,1.27
2023-04-14T15:58:05.154Z,1.48
2023-04-14T16:00:31.910Z,1.45
2023-04-14T16:02:58.637Z,1.36
2023-04-14T16:05:25.372Z,1.37
2023-04-14T16:07:52.015Z,1.35
2023-04-14T16:10:18.710Z,1.47
2023-04-14T16:12:45.320Z,1.53
2023-04-14T16:15:12.146Z,1.27
2023-04-14T16:17:38.868Z,1.52
2023-04-14T16:20:05.908Z,1.62
2023-04-14T16:22:32.551Z,1.36
2023-04-14T16:24:59.206Z,1.12
2023-04-14T16:27:25.815Z,1.49
2023-04-14T16:29:52.455Z,1.26
2023-04-14T16:32:19.068Z,1.25
2023-04-14T16:34:45.712Z,1.31
2023-04-14T16:37:12.495Z,1.36
2023-04-14T16:39:39.103Z,1.59
2023-04-14T16:42:05.848Z,1.38
2023-04-14T16:44:32.489Z,1.42
2023-04-14T16:46:59.169Z,1.58
2023-04-14T16:49:25.788Z,1.62
2023-04-14T16:51:52.383Z,1.65
2023-04-14T16:54:18.995Z,1.82
2023-04-14T16:56:45.599Z,1.75
2023-04-14T16:59:12.326Z,1.41
2023-04-14T17:01:39.016Z,3.14
2023-04-14T17:04:06.226Z,1.91
2023-04-14T17:06:33.035Z,1.32
2023-04-14T17:08:59.624Z,1.51
2023-04-14T17:11:26.246Z,1.44
2023-04-14T17:13:52.936Z,1.45
2023-04-14T17:16:19.582Z,1.45
2023-04-14T17:18:46.206Z,1.30
2023-04-14T17:21:12.822Z,1.33
2023-04-14T17:23:39.817Z,1.31
2023-04-14T17:26:06.553Z,1.45
2023-04-14T17:28:33.199Z,1.31
2023-04-14T17:30:59.912Z,1.49
2023-04-14T17:33:26.696Z,1.29
2023-04-14T17:35:56.821Z,1.32
2023-04-14T17:38:23.595Z,1.25
2023-04-14T17:40:50.252Z,1.38
2023-04-14T17:43:16.925Z,1.32
2023-04-14T17:45:43.593Z,1.66
2023-04-14T17:48:10.448Z,1.50
2023-04-14T17:50:37.241Z,1.80
2023-04-14T17:53:03.876Z,1.48
2023-04-14T17:55:30.516Z,1.54
2023-04-14T17:57:57.315Z,1.63
2023-04-14T18:00:24.030Z,2.31
2023-04-14T18:02:50.924Z,2.22
2023-04-14T18:05:17.659Z,1.49
2023-04-14T18:07:44.263Z,1.60
2023-04-14T18:10:10.916Z,1.75
2023-04-14T18:12:37.608Z,1.77
2023-04-14T18:15:05.520Z,1.61
2023-04-14T18:17:32.236Z,1.47
2023-04-14T18:19:58.933Z,1.50
2023-04-14T18:22:26.496Z,1.64
2023-04-14T18:24:53.560Z,1.64
2023-04-14T18:29:49.880Z,1.80
2023-04-14T18:32:16.530Z,2.93
2023-04-14T18:34:44.289Z,3.17
2023-04-14T18:37:12.137Z,1.94
2023-04-14T18:39:38.802Z,1.83
2023-04-14T18:42:05.516Z,1.83
2023-04-14T18:44:32.200Z,1.83
2023-04-14T18:46:58.831Z,1.99
2023-04-14T18:49:25.628Z,1.99
2023-04-14T18:51:54.936Z,2.07
2023-04-14T18:54:21.720Z,1.94
2023-04-14T18:56:48.748Z,2.58
2023-04-14T18:59:15.476Z,2.64
2023-04-14T19:01:42.096Z,2.32
2023-04-14T19:04:08.880Z,2.30
2023-04-14T19:06:36.038Z,2.86
2023-04-14T19:09:02.796Z,3.26
2023-04-14T19:11:31.084Z,2.11
2023-04-14T19:13:57.850Z,1.77
2023-04-14T19:16:24.513Z,11.70
2023-04-14T19:18:51.148Z,4.24
2023-04-14T19:21:17.777Z,3.43
2023-04-14T19:23:44.414Z,4.33
2023-04-14T19:26:11.059Z,7.75
2023-04-14T19:28:37.656Z,8.93
2023-04-14T19:31:04.349Z,5.97
2023-04-14T19:33:31.034Z,5.37
2023-04-14T19:35:57.660Z,5.37
2023-04-14T19:38:24.476Z,3.89
2023-04-14T19:40:51.147Z,4.69
2023-04-14T19:43:18.351Z,6.45
2023-04-14T19:45:51.428Z,7.91
2023-04-14T19:48:23.406Z,8.21
2023-04-14T19:50:52.260Z,6.78
2023-04-14T19:53:19.037Z,8.81
2023-04-14T19:55:49.842Z,6.60
2023-04-14T19:58:21.159Z,7.51
2023-04-14T20:00:49.700Z,4.62
2023-04-14T20:03:16.444Z,2.59
2023-04-14T20:05:43.230Z,2.22
2023-04-14T20:08:09.911Z,2.21
2023-04-14T20:10:36.771Z,3.12
2023-04-14T20:13:03.381Z,3.29
2023-04-14T20:15:29.957Z,2.48
2023-04-14T20:17:56.640Z,2.62
2023-04-14T20:20:23.669Z,5.70
2023-04-14T20:22:50.295Z,3.06
2023-04-14T20:25:17.134Z,1.68
2023-04-14T20:27:43.739Z,1.29
2023-04-14T20:30:10.881Z,1.18
2023-04-14T20:32:37.570Z,1.17
2023-04-14T20:35:04.402Z,1.34
2023-04-14T20:37:31.038Z,1.33
2023-04-14T20:39:57.724Z,1.86
2023-04-14T20:42:25.070Z,1.75
2023-04-14T20:44:51.676Z,1.39
2023-04-14T20:47:18.278Z,1.54
2023-04-14T20:49:44.905Z,2.10
2023-04-14T20:52:11.547Z,1.87
2023-04-14T20:54:38.153Z,2.21
2023-04-14T20:57:04.806Z,3.96
2023-04-14T20:59:31.413Z,2.89
2023-04-14T21:01:58.158Z,2.34
2023-04-14T21:04:24.915Z,1.89
2023-04-14T21:06:51.629Z,1.84
2023-04-14T21:09:18.692Z,1.85
2023-04-14T21:11:45.291Z,1.77
2023-04-14T21:15:39.861Z,1.73
2023-04-14T21:16:59.430Z,1.64
2023-04-14T21:19:26.206Z,1.65
2023-04-14T21:21:52.976Z,1.67
2023-04-14T21:24:19.795Z,1.62
2023-04-14T21:26:46.360Z,1.70
2023-04-14T21:29:13.015Z,1.48
2023-04-14T21:31:39.628Z,1.48
2023-04-14T21:34:06.368Z,1.53
2023-04-14T21:36:33.025Z,1.64
2023-04-14T21:38:59.725Z,1.64
2023-04-14T21:41:26.389Z,1.73
2023-04-14T21:43:53.064Z,1.76
2023-04-14T21:46:19.816Z,1.57
2023-04-14T21:48:48.316Z,1.52
2023-04-14T21:51:15.052Z,1.48
2023-04-14T21:53:44.266Z,1.60
2023-04-14T21:56:11.221Z,1.60
2023-04-14T21:58:43.783Z,1.56
2023-04-14T22:01:10.826Z,1.53
2023-04-14T22:03:39.751Z,1.39
2023-04-14T22:06:06.883Z,1.44
2023-04-14T22:08:33.562Z,1.59
2023-04-14T22:11:00.190Z,1.41
2023-04-14T22:13:26.862Z,1.34
2023-04-14T22:15:53.481Z,1.25
2023-04-14T22:18:20.118Z,1.38
2023-04-14T22:20:46.810Z,1.42
2023-04-14T22:23:13.422Z,1.37
2023-04-14T22:25:40.206Z,1.33
2023-04-14T22:28:07.371Z,1.52
2023-04-14T22:30:34.442Z,1.37
2023-04-14T22:33:01.149Z,1.28
2023-04-14T22:35:28.780Z,1.50
2023-04-14T22:37:55.474Z,1.56
2023-04-14T22:40:22.127Z,1.55
2023-04-14T22:42:48.730Z,1.56
2023-04-14T22:45:15.378Z,1.49
2023-04-14T22:47:42.020Z,1.47
2023-04-14T22:50:08.950Z,1.73
2023-04-14T22:52:35.682Z,1.72
2023-04-14T22:55:02.309Z,1.58
2023-04-14T22:57:28.945Z,1.63
2023-04-14T22:59:55.551Z,1.65
2023-04-14T23:02:22.272Z,1.73
2023-04-14T23:04:49.054Z,1.62
2023-04-14T23:07:15.732Z,1.39
2023-04-14T23:09:42.434Z,1.17
2023-04-14T23:12:09.097Z,1.17
2023-04-14T23:14:35.746Z,1.29
2023-04-14T23:17:02.397Z,1.28
2023-04-14T23:19:29.040Z,1.42
2023-04-14T23:21:55.705Z,1.59
2023-04-14T23:24:22.359Z,1.57
2023-04-14T23:26:49.056Z,1.79
2023-04-14T23:29:15.680Z,1.59
2023-04-14T23:31:42.341Z,1.73
2023-04-14T23:34:08.965Z,1.68
2023-04-14T23:36:35.884Z,1.65
2023-04-14T23:39:02.772Z,1.80
2023-04-14T23:41:29.714Z,1.64
2023-04-14T23:43:56.321Z,1.65
2023-04-14T23:46:23.053Z,1.64
2023-04-14T23:48:49.759Z,1.71
2023-04-14T23:51:17.277Z,1.40
2023-04-14T23:53:44.743Z,1.47
2023-04-14T23:56:11.408Z,1.65
2023-04-14T23:58:38.072Z,1.58
